Terminal Aerodrome Forecast
Issued by NWS Paducah, KY

Home | Current Version | Previous Version | Graphics & Text | Print | Product List | Glossary On
Versions: 1 2 3 4 5 6 7 8 9 10 11 12 13 14 15
125
FTUS43 KPAH 200219 AAB
TAFPAH
TAF AMD
KPAH 200219Z 2002/2024 20008KT P6SM SCT030
      TEMPO 2002/2006 BKN030
     FM200600 21011KT P6SM BKN035 WS020/23045KT
     FM201200 21007KT P6SM OVC030
     FM202200 19008KT P6SM OVC015=

USA.gov is the U.S. government's official web portal to all federal, state and local government web resources and services.